Time;durP1;ratioP1;P1;durP2;ratioP2;P2;SDS_P1;SDS_P2;PMS_P1;PMS_P2;Temp;Humidity;BMP_temperature;BMP_pressure;BME280_temperature;BME280_humidity;BME280_pressure;Samples;Min_cycle;Max_cycle;Signal;HPM_P1;HPM_P2
2022/08/07 00:01:17;;;;;;;11.43;3.35;;;14.90;83.20;;;;;;5038192;28;20083;-75
2022/08/07 00:04:06;;;;;;;9.07;3.60;;;14.90;83.40;;;;;;5054815;28;20060;-75
2022/08/07 00:06:38;;;;;;;12.65;3.33;;;14.90;83.50;;;;;;5055506;28;20054;-76
2022/08/07 00:09:19;;;;;;;11.05;3.78;;;14.90;83.70;;;;;;5054620;28;20044;-75
2022/08/07 00:11:50;;;;;;;11.60;3.63;;;14.80;83.80;;;;;;5055596;28;20067;-75
2022/08/07 00:14:29;;;;;;;7.97;3.67;;;14.80;84.80;;;;;;5054219;28;20168;-75
2022/08/07 00:17:00;;;;;;;10.70;3.92;;;14.70;84.30;;;;;;5054798;28;20044;-74
2022/08/07 00:19:32;;;;;;;9.40;3.80;;;14.70;84.50;;;;;;5055792;28;20333;-74
2022/08/07 00:22:19;;;;;;;10.90;3.90;;;14.70;84.50;;;;;;5054399;28;20043;-76
2022/08/07 00:25:04;;;;;;;8.20;3.97;;;14.70;84.90;;;;;;5054225;28;20044;-75
2022/08/07 00:27:34;;;;;;;10.65;3.53;;;14.50;84.70;;;;;;5053873;28;20045;-75
2022/08/07 00:30:21;;;;;;;8.07;3.65;;;14.60;85.00;;;;;;5054702;28;20040;-75
2022/08/07 00:32:59;;;;;;;8.52;3.72;;;14.50;85.00;;;;;;5054590;28;20084;-75
2022/08/07 00:35:29;;;;;;;9.88;3.88;;;14.50;85.30;;;;;;5053356;28;20460;-75
2022/08/07 00:37:57;;;;;;;;;;;14.40;85.40;;;;;;5055438;28;20050;-75
2022/08/07 00:40:25;;;;;;;;;;;14.40;87.20;;;;;;5038367;28;19920;-75
2022/08/07 00:43:10;;;;;;;11.75;3.38;;;14.30;87.00;;;;;;5053692;28;19921;-75
2022/08/07 00:45:59;;;;;;;7.38;3.60;;;14.30;85.30;;;;;;5040595;28;20375;-75
2022/08/07 00:48:29;;;;;;;8.73;3.25;;;14.20;85.40;;;;;;5054343;28;20045;-74
2022/08/07 00:51:00;;;;;;;7.95;3.92;;;14.20;86.00;;;;;;5055198;28;20049;-75
2022/08/07 00:53:28;;;;;;;10.73;3.70;;;14.10;86.10;;;;;;5054320;28;20367;-74
2022/08/07 00:56:15;;;;;;;10.18;3.55;;;14.10;86.40;;;;;;5052331;28;20049;-75
2022/08/07 00:58:44;;;;;;;8.13;3.92;;;14.00;86.60;;;;;;5054105;28;20048;-74
2022/08/07 01:01:15;;;;;;;5.53;3.13;;;14.00;87.00;;;;;;5053712;28;20353;-74
2022/08/07 01:03:42;;;;;;;10.40;3.70;;;14.00;87.10;;;;;;5053751;28;20044;-75
2022/08/07 01:06:29;;;;;;;10.05;3.20;;;14.00;87.40;;;;;;5054632;28;20384;-75
2022/08/07 01:08:59;;;;;;;9.85;3.95;;;13.90;87.40;;;;;;5053964;28;20060;-76
2022/08/07 01:11:31;;;;;;;7.80;3.45;;;13.80;87.70;;;;;;5054955;28;20052;-75
2022/08/07 01:14:20;;;;;;;9.57;3.22;;;13.80;87.80;;;;;;5052617;28;20057;-75
2022/08/07 01:16:56;;;;;;;7.05;3.50;;;13.70;88.00;;;;;;5053716;28;20056;-75
2022/08/07 01:19:28;;;;;;;12.90;3.65;;;13.70;88.20;;;;;;5054016;28;20045;-75
2022/08/07 01:22:01;;;;;;;6.13;3.50;;;13.60;88.50;;;;;;5054041;28;20045;-75
2022/08/07 01:24:38;;;;;;;9.25;3.83;;;13.60;88.80;;;;;;5053810;28;20049;-75
2022/08/07 01:27:06;;;;;;;10.45;3.70;;;13.50;89.10;;;;;;5053521;28;20052;-76
2022/08/07 01:29:54;;;;;;;;;;;13.50;90.00;;;;;;5053006;28;20494;-75
2022/08/07 01:32:22;;;;;;;6.32;3.63;;;13.40;90.50;;;;;;5054451;28;19927;-75
2022/08/07 01:34:53;;;;;;;10.07;3.92;;;13.40;89.70;;;;;;5052680;28;20045;-75
2022/08/07 01:37:21;;;;;;;7.72;4.07;;;13.30;89.80;;;;;;5054480;28;20056;-76
2022/08/07 01:39:53;;;;;;;10.25;3.70;;;13.30;90.10;;;;;;5036738;28;20052;-76
2022/08/07 01:42:28;;;;;;;11.70;3.80;;;13.30;90.10;;;;;;5052770;28;20368;-74
2022/08/07 01:45:09;;;;;;;7.22;3.67;;;13.20;90.40;;;;;;5053842;28;20053;-75
2022/08/07 01:47:53;;;;;;;8.77;3.92;;;13.10;90.20;;;;;;5052526;28;20319;-75
2022/08/07 01:50:58;;;;;;;11.13;3.97;;;13.10;90.60;;;;;;5053560;28;20044;-74
2022/08/07 01:53:50;;;;;;;9.18;4.30;;;13.20;90.50;;;;;;5053569;28;20041;-76
2022/08/07 01:56:41;;;;;;;9.75;4.38;;;13.00;90.60;;;;;;5056847;28;20055;-75
2022/08/07 01:59:35;;;;;;;10.73;4.20;;;13.00;90.80;;;;;;5041934;28;20467;-75
2022/08/07 02:02:08;;;;;;;10.18;4.57;;;12.90;91.10;;;;;;5039748;28;20048;-75
2022/08/07 02:04:45;;;;;;;8.73;4.05;;;12.90;91.10;;;;;;5057331;28;20364;-75
2022/08/07 02:07:31;;;;;;;6.93;3.97;;;12.90;91.30;;;;;;5057523;28;20045;-75
2022/08/07 02:10:25;;;;;;;9.27;3.95;;;12.80;91.40;;;;;;5057362;28;20045;-76
2022/08/07 02:12:57;;;;;;;11.82;4.60;;;12.80;91.50;;;;;;5056823;28;20052;-76
2022/08/07 02:15:32;;;;;;;9.05;4.35;;;12.80;91.60;;;;;;5056693;28;20044;-76
2022/08/07 02:18:02;;;;;;;10.35;5.05;;;12.70;91.70;;;;;;5040652;28;20048;-75
2022/08/07 02:20:31;;;;;;;9.18;4.90;;;12.70;91.90;;;;;;5056866;28;20037;-74
2022/08/07 02:23:02;;;;;;;10.30;5.20;;;12.60;92.10;;;;;;5055814;28;20371;-76
2022/08/07 02:25:33;;;;;;;10.45;4.70;;;12.60;92.20;;;;;;5056779;28;20044;-76
2022/08/07 02:28:24;;;;;;;8.23;5.38;;;12.60;92.30;;;;;;5056067;28;20056;-75
2022/08/07 02:31:00;;;;;;;13.60;4.97;;;12.50;92.50;;;;;;5056991;28;20051;-75
2022/08/07 02:33:44;;;;;;;8.80;5.13;;;12.50;92.60;;;;;;5040236;28;20056;-75
2022/08/07 02:36:35;;;;;;;9.48;4.70;;;12.50;92.70;;;;;;5055378;28;20045;-74
2022/08/07 02:39:10;;;;;;;12.30;4.95;;;12.50;92.90;;;;;;5056802;28;20037;-75
2022/08/07 02:42:00;;;;;;;12.48;4.82;;;12.40;92.90;;;;;;5055286;28;20056;-75
2022/08/07 02:44:30;;;;;;;11.55;5.15;;;12.40;93.00;;;;;;5057624;28;20056;-74
2022/08/07 02:47:04;;;;;;;11.07;5.45;;;12.40;93.20;;;;;;5057640;28;20053;-74
2022/08/07 02:49:33;;;;;;;9.45;4.13;;;12.30;93.40;;;;;;5038814;28;20060;-74
2022/08/07 02:52:31;;;;;;;10.93;3.90;;;12.30;93.30;;;;;;5039828;28;20060;-75
2022/08/07 02:55:05;;;;;;;9.50;4.50;;;12.30;93.40;;;;;;5022980;28;20060;-74
2022/08/07 02:57:57;;;;;;;8.10;3.67;;;12.30;93.40;;;;;;5056380;28;20049;-74
2022/08/07 03:00:29;;;;;;;8.18;3.92;;;12.20;93.30;;;;;;5056099;28;20048;-75
2022/08/07 03:02:59;;;;;;;7.03;3.70;;;12.20;93.30;;;;;;5054926;28;20041;-76
2022/08/07 03:05:35;;;;;;;7.40;3.83;;;12.10;93.40;;;;;;5055943;28;20049;-74
2022/08/07 03:08:06;;;;;;;7.00;3.67;;;12.10;93.40;;;;;;5022688;28;20049;-74
2022/08/07 03:10:42;;;;;;;7.28;3.65;;;12.10;93.50;;;;;;5056004;28;20041;-74
2022/08/07 03:13:18;;;;;;;7.90;3.42;;;12.10;93.50;;;;;;5055708;28;20049;-76
2022/08/07 03:15:49;;;;;;;8.25;3.78;;;12.00;93.70;;;;;;5054005;28;20053;-74
2022/08/07 03:18:29;;;;;;;9.45;3.72;;;12.00;93.70;;;;;;5039622;28;20060;-76
2022/08/07 03:21:06;;;;;;;6.78;3.65;;;11.90;93.80;;;;;;5038405;28;20060;-78
2022/08/07 03:23:40;;;;;;;7.47;3.92;;;11.90;93.80;;;;;;5039738;28;20052;-74
2022/08/07 03:26:31;;;;;;;10.05;3.83;;;11.90;93.80;;;;;;5055771;28;20060;-74
2022/08/07 03:29:06;;;;;;;7.40;3.63;;;11.80;93.90;;;;;;5055795;28;20097;-76
2022/08/07 03:31:41;;;;;;;5.70;3.38;;;11.80;94.00;;;;;;5055851;28;20052;-76
2022/08/07 03:34:17;;;;;;;5.57;3.58;;;11.80;94.00;;;;;;5054370;28;20045;-76
2022/08/07 03:36:56;;;;;;;8.85;3.80;;;11.70;94.00;;;;;;5055410;28;20037;-76
2022/08/07 03:39:28;;;;;;;6.28;3.40;;;11.70;94.20;;;;;;5039004;28;20052;-76
2022/08/07 03:42:17;;;;;;;8.05;3.70;;;11.70;94.20;;;;;;5054379;28;20048;-76
2022/08/07 03:44:48;;;;;;;6.07;3.45;;;11.70;94.40;;;;;;5039138;28;20375;-76
2022/08/07 03:47:26;;;;;;;6.43;3.70;;;11.60;94.40;;;;;;5040508;28;20041;-76
2022/08/07 03:50:16;;;;;;;9.25;3.78;;;11.60;94.50;;;;;;5055419;28;20041;-77
2022/08/07 03:52:52;;;;;;;8.13;3.95;;;11.50;94.60;;;;;;5055376;28;20049;-76
2022/08/07 03:55:21;;;;;;;7.55;3.70;;;11.50;94.70;;;;;;5053947;28;20050;-76
2022/08/07 03:57:50;;;;;;;7.25;3.47;;;11.50;95.00;;;;;;5055102;28;20049;-77
2022/08/07 04:00:40;;;;;;;8.95;3.88;;;11.40;95.00;;;;;;5055177;28;20041;-77
2022/08/07 04:03:20;;;;;;;10.40;3.83;;;11.40;95.20;;;;;;5055960;28;20049;-77
2022/08/07 04:05:50;;;;;;;8.52;3.88;;;11.40;95.30;;;;;;5054595;28;20044;-77
2022/08/07 04:08:26;;;;;;;11.13;3.67;;;11.40;95.40;;;;;;5022330;28;20041;-76
2022/08/07 04:10:56;;;;;;;8.60;4.20;;;11.30;95.40;;;;;;5055023;28;20052;-75
2022/08/07 04:13:45;;;;;;;7.72;3.70;;;11.30;95.50;;;;;;5040869;28;20056;-77
2022/08/07 04:16:35;;;;;;;8.68;4.00;;;11.30;95.50;;;;;;5036606;28;20056;-75
2022/08/07 04:19:04;;;;;;;11.57;3.95;;;11.30;95.60;;;;;;5054307;28;20052;-76
2022/08/07 04:21:48;;;;;;;10.35;4.28;;;11.30;95.70;;;;;;5053451;28;20468;-76
2022/08/07 04:24:37;;;;;;;7.95;3.75;;;11.20;95.80;;;;;;5041287;28;20044;-77
2022/08/07 04:27:10;;;;;;;10.20;3.95;;;11.20;95.80;;;;;;5054434;28;20045;-76
2022/08/07 04:29:54;;;;;;;7.32;3.35;;;11.20;95.90;;;;;;5053344;28;20056;-76
2022/08/07 04:32:48;;;;;;;7.50;3.80;;;11.30;95.80;;;;;;5041243;28;20056;-76
2022/08/07 04:35:27;;;;;;;11.35;3.45;;;11.30;95.90;;;;;;5038167;28;20059;-76
2022/08/07 04:38:06;;;;;;;9.35;3.28;;;11.30;95.90;;;;;;5054613;28;20045;-77
2022/08/07 04:40:42;;;;;;;7.65;3.45;;;11.30;95.80;;;;;;5054444;28;20048;-76
2022/08/07 04:43:27;;;;;;;4.97;2.95;;;11.40;96.00;;;;;;5054608;28;20041;-76
2022/08/07 04:46:24;;;;;;;8.82;3.25;;;11.40;95.80;;;;;;5054308;28;20043;-76
2022/08/07 04:49:39;;;;;;;8.18;3.45;;;11.40;96.00;;;;;;5053109;28;20049;-76
2022/08/07 04:52:35;;;;;;;6.22;3.10;;;11.40;96.20;;;;;;5038011;28;20064;-76
2022/08/07 04:55:24;;;;;;;8.20;3.22;;;11.40;96.20;;;;;;5052899;28;20041;-76
2022/08/07 04:58:58;;;;;;;9.15;2.75;;;11.40;96.00;;;;;;5054738;28;20049;-76
2022/08/07 05:02:09;;;;;;;8.95;3.25;;;11.40;96.30;;;;;;5036278;28;20063;-76
2022/08/07 05:05:11;;;;;;;6.38;2.60;;;11.30;96.50;;;;;;5053758;28;20045;-76
2022/08/07 05:08:06;;;;;;;9.45;2.80;;;11.30;96.70;;;;;;5052815;28;20056;-76
2022/08/07 05:10:44;;;;;;;6.40;2.63;;;11.40;96.60;;;;;;5055081;28;20054;-76
2022/08/07 05:13:52;;;;;;;8.90;2.80;;;11.40;96.80;;;;;;5053748;28;20045;-76
2022/08/07 05:16:46;;;;;;;12.40;2.83;;;11.40;96.90;;;;;;5040038;28;20045;-77
2022/08/07 05:19:24;;;;;;;9.82;2.78;;;11.40;96.70;;;;;;5037566;28;20055;-77
2022/08/07 05:22:13;;;;;;;7.25;2.33;;;11.50;97.20;;;;;;5038938;28;20037;-77
2022/08/07 05:24:59;;;;;;;6.70;2.67;;;11.50;96.80;;;;;;5037001;28;20045;-76
2022/08/07 05:27:29;;;;;;;7.75;2.83;;;11.50;96.80;;;;;;5037572;28;20049;-76
2022/08/07 05:30:21;;;;;;;8.55;2.78;;;11.50;96.90;;;;;;5041055;28;20048;-76
2022/08/07 05:33:04;;;;;;;7.55;2.85;;;11.60;97.00;;;;;;5057719;28;20045;-76
2022/08/07 05:35:33;;;;;;;8.35;2.47;;;11.60;97.00;;;;;;5056906;28;20044;-77
2022/08/07 05:38:11;;;;;;;8.15;2.40;;;11.70;97.10;;;;;;5058006;28;20060;-77
2022/08/07 05:41:01;;;;;;;10.73;2.45;;;11.80;97.10;;;;;;5039939;28;20056;-76
2022/08/07 05:43:46;;;;;;;8.43;2.67;;;11.80;97.00;;;;;;5057484;28;20120;-77
2022/08/07 05:46:37;;;;;;;6.78;2.42;;;11.90;97.00;;;;;;5057476;28;20044;-76
2022/08/07 05:49:10;;;;;;;6.00;2.40;;;12.00;96.90;;;;;;5056399;28;20052;-77
2022/08/07 05:51:43;;;;;;;6.27;2.40;;;12.00;96.90;;;;;;5041662;28;20052;-76
2022/08/07 05:54:17;;;;;;;9.00;2.65;;;12.10;97.10;;;;;;5056737;28;20333;-78
2022/08/07 05:57:08;;;;;;;8.23;2.55;;;12.20;96.90;;;;;;5057506;28;20056;-78
2022/08/07 05:59:38;;;;;;;8.93;2.45;;;12.20;96.60;;;;;;5040714;28;20060;-76
2022/08/07 06:02:29;;;;;;;8.75;2.67;;;12.30;96.50;;;;;;5025695;28;20041;-76
2022/08/07 06:05:07;;;;;;;4.55;2.40;;;12.40;96.40;;;;;;5057186;28;20045;-77
2022/08/07 06:07:43;;;;;;;9.52;2.63;;;12.30;96.30;;;;;;5056092;28;20052;-77
2022/08/07 06:10:32;;;;;;;7.82;2.65;;;12.20;96.30;;;;;;5027057;28;20056;-77
2022/08/07 06:13:00;;;;;;;7.03;2.53;;;12.50;96.30;;;;;;5056502;28;20456;-78
2022/08/07 06:15:35;;;;;;;6.82;2.20;;;12.90;96.30;;;;;;5039702;28;20049;-78
2022/08/07 06:18:12;;;;;;;6.35;2.63;;;12.70;96.10;;;;;;5040551;28;20048;-77
2022/08/07 06:20:46;;;;;;;7.45;2.42;;;12.80;96.00;;;;;;5040374;28;20459;-76
2022/08/07 06:23:27;;;;;;;5.38;2.28;;;12.90;95.80;;;;;;5040519;28;20048;-77
2022/08/07 06:26:15;;;;;;;7.55;2.92;;;12.90;95.90;;;;;;5023983;28;20045;-76
2022/08/07 06:28:48;;;;;;;5.70;2.03;;;13.00;95.70;;;;;;5039059;28;20041;-77
2022/08/07 06:31:20;;;;;;;8.07;2.80;;;13.10;95.60;;;;;;5040312;28;20045;-76
2022/08/07 06:34:05;;;;;;;10.45;2.80;;;13.20;95.40;;;;;;5040450;28;20045;-76
2022/08/07 06:36:35;;;;;;;6.85;2.55;;;13.10;95.30;;;;;;5022144;28;20063;-75
2022/08/07 06:39:05;;;;;;;8.05;2.40;;;13.40;95.50;;;;;;5024539;28;20048;-77
2022/08/07 06:42:11;;;;;;;8.48;2.70;;;13.40;95.00;;;;;;5037832;28;20041;-76
2022/08/07 06:44:52;;;;;;;9.40;2.83;;;13.50;94.90;;;;;;5039837;28;20037;-77
2022/08/07 06:47:21;;;;;;;8.38;2.85;;;13.60;94.90;;;;;;5040225;28;20045;-76
2022/08/07 06:49:50;;;;;;;9.15;2.72;;;13.60;94.70;;;;;;5022725;28;20049;-76
2022/08/07 06:52:36;;;;;;;5.22;2.42;;;13.70;94.40;;;;;;5025655;28;20045;-75
2022/08/07 06:55:16;;;;;;;10.68;2.70;;;13.80;94.30;;;;;;5006902;28;20049;-76
2022/08/07 06:58:09;;;;;;;7.43;2.70;;;13.90;94.20;;;;;;5026330;28;20037;-76
2022/08/07 07:00:52;;;;;;;6.53;2.60;;;14.00;93.90;;;;;;5039826;28;20056;-77
2022/08/07 07:03:21;;;;;;;7.25;2.90;;;14.10;93.80;;;;;;5039836;28;20037;-77
2022/08/07 07:06:07;;;;;;;10.65;3.35;;;14.10;93.30;;;;;;5056929;28;20041;-75
2022/08/07 07:08:38;;;;;;;11.48;3.55;;;14.30;92.90;;;;;;5038975;28;20059;-78
2022/08/07 07:11:13;;;;;;;8.43;3.83;;;14.40;93.30;;;;;;5022689;28;20053;-77
2022/08/07 07:14:03;;;;;;;8.98;3.50;;;14.50;92.70;;;;;;5065898;28;20053;-78
2022/08/07 07:16:38;;;;;;;9.55;3.83;;;14.70;91.80;;;;;;5075356;28;20060;-73
2022/08/07 07:19:29;;;;;;;11.88;5.15;;;14.80;91.50;;;;;;5058801;28;20053;-73
2022/08/07 07:22:18;;;;;;;12.90;5.22;;;15.00;91.00;;;;;;5075497;28;20041;-74
2022/08/07 07:25:07;;;;;;;12.80;5.25;;;15.10;90.70;;;;;;5058953;28;20048;-73
2022/08/07 07:28:01;;;;;;;10.23;4.03;;;15.20;90.20;;;;;;5075333;28;20044;-73
2022/08/07 07:31:02;;;;;;;9.05;4.30;;;15.30;89.60;;;;;;5076028;28;20371;-73
2022/08/07 07:33:32;;;;;;;12.02;4.80;;;15.50;88.70;;;;;;5058506;28;20375;-75
2022/08/07 07:36:01;;;;;;;11.05;4.20;;;15.60;88.20;;;;;;5075066;28;20068;-73
2022/08/07 07:38:41;;;;;;;7.03;3.55;;;15.60;87.20;;;;;;5058561;28;20048;-74
2022/08/07 07:41:16;;;;;;;7.47;3.90;;;15.70;86.50;;;;;;5075094;28;20054;-74
2022/08/07 07:43:49;;;;;;;10.27;3.70;;;15.80;85.90;;;;;;5075795;28;20045;-73
2022/08/07 07:46:39;;;;;;;9.40;3.53;;;15.90;85.50;;;;;;5044461;28;20483;-73
2022/08/07 07:49:27;;;;;;;8.30;3.40;;;16.00;85.30;;;;;;5074572;28;20047;-74
2022/08/07 07:52:15;;;;;;;6.13;3.53;;;16.10;84.50;;;;;;5057188;28;20371;-73
2022/08/07 07:54:46;;;;;;;13.38;3.90;;;16.20;84.30;;;;;;5074515;28;20041;-74
2022/08/07 07:57:21;;;;;;;7.85;3.55;;;16.20;83.90;;;;;;5075752;28;20044;-73
2022/08/07 08:00:11;;;;;;;9.75;3.50;;;16.20;83.50;;;;;;5060927;28;20130;-73
2022/08/07 08:02:52;;;;;;;6.95;3.28;;;16.40;83.30;;;;;;5074644;28;20044;-72
2022/08/07 08:05:36;;;;;;;7.90;3.40;;;16.40;83.10;;;;;;5058632;28;20037;-74
2022/08/07 08:08:27;;;;;;;8.68;3.70;;;16.50;81.50;;;;;;5057258;28;20048;-74
2022/08/07 08:11:05;;;;;;;9.00;3.50;;;16.70;80.90;;;;;;5075515;28;20048;-74
2022/08/07 08:13:42;;;;;;;10.35;3.90;;;16.80;80.90;;;;;;5041647;28;20064;-74
2022/08/07 08:16:38;;;;;;;7.55;3.75;;;16.80;80.30;;;;;;5042136;28;20387;-74
2022/08/07 08:19:10;;;;;;;7.50;3.60;;;16.90;79.10;;;;;;5075678;28;20044;-74
2022/08/07 08:28:04;;;;;;;8.85;4.53;;;17.10;79.50;;;;;;5056260;28;20044;-74
2022/08/07 08:30:34;;;;;;;7.80;4.35;;;17.30;79.40;;;;;;5075696;28;20048;-74
2022/08/07 08:33:19;;;;;;;9.05;4.32;;;17.40;78.70;;;;;;5075412;28;20045;-76
2022/08/07 08:35:50;;;;;;;9.05;4.20;;;17.50;78.30;;;;;;5056668;28;20045;-76
2022/08/07 08:38:25;;;;;;;12.90;4.50;;;17.60;78.20;;;;;;5058105;28;20486;-75
2022/08/07 08:41:13;;;;;;;12.07;4.10;;;17.80;77.90;;;;;;5074395;28;20063;-76
2022/08/07 08:44:06;;;;;;;9.15;4.70;;;17.90;77.40;;;;;;5075176;28;20048;-76
2022/08/07 08:46:47;;;;;;;10.13;4.32;;;18.00;77.30;;;;;;5057262;28;20486;-76
2022/08/07 08:49:34;;;;;;;9.25;4.53;;;18.10;77.20;;;;;;5056170;28;20052;-75
2022/08/07 08:52:27;;;;;;;7.70;4.60;;;18.10;76.80;;;;;;5057636;28;20040;-75
2022/08/07 08:55:33;;;;;;;10.68;4.90;;;18.20;77.60;;;;;;5073950;28;20052;-75
2022/08/07 08:58:55;;;;;;;10.13;5.13;;;18.20;77.10;;;;;;5034712;28;20060;-76
2022/08/07 09:01:36;;;;;;;9.05;4.68;;;18.50;76.60;;;;;;5073348;28;20059;-75
2022/08/07 09:04:17;;;;;;;;;;;18.60;75.90;;;;;;5058468;28;20036;-76
2022/08/07 09:07:15;;;;;;;10.40;4.80;;;18.60;74.70;;;;;;5074933;28;19920;-75
2022/08/07 09:10:10;;;;;;;9.93;5.20;;;18.60;75.40;;;;;;5039235;28;20048;-74
2022/08/07 09:13:32;;;;;;;12.43;5.00;;;18.70;75.50;;;;;;5073791;28;20463;-75
2022/08/07 09:16:26;;;;;;;10.70;4.45;;;18.80;75.50;;;;;;4972820;28;20046;-77
2022/08/07 09:19:05;;;;;;;10.88;5.13;;;18.90;75.50;;;;;;5074721;28;20044;-77
2022/08/07 09:22:37;;;;;;;9.23;4.90;;;19.00;75.50;;;;;;5060918;28;20037;-75
2022/08/07 09:25:33;;;;;;;10.05;5.10;;;20.20;75.20;;;;;;5057033;28;20043;-75
2022/08/07 09:28:06;;;;;;;12.48;5.05;;;17.80;74.70;;;;;;5055994;28;20049;-75
2022/08/07 09:31:09;;;;;;;15.73;5.18;;;19.30;75.00;;;;;;5074624;28;20356;-75
2022/08/07 09:34:13;;;;;;;11.38;5.55;;;19.50;73.00;;;;;;5057103;28;20048;-74
2022/08/07 09:37:17;;;;;;;10.13;5.63;;;19.50;72.90;;;;;;5057182;28;20371;-73
2022/08/07 09:39:50;;;;;;;13.07;5.40;;;19.60;72.40;;;;;;5057279;28;20052;-75
2022/08/07 09:42:50;;;;;;;13.13;5.00;;;19.60;73.40;;;;;;5055852;28;20138;-75
2022/08/07 09:45:41;;;;;;;9.27;4.50;;;19.70;72.70;;;;;;5074122;28;20049;-77
2022/08/07 09:48:47;;;;;;;8.82;4.30;;;19.80;71.90;;;;;;5073057;28;20051;-77
2022/08/07 09:51:56;;;;;;;10.68;4.40;;;20.00;70.70;;;;;;5056418;28;20467;-76
2022/08/07 09:54:47;;;;;;;11.43;4.78;;;20.10;70.10;;;;;;5055727;28;20068;-74
2022/08/07 09:57:43;;;;;;;9.98;4.43;;;20.20;70.50;;;;;;5074352;28;20041;-74
2022/08/07 10:00:15;;;;;;;10.05;4.43;;;20.30;69.70;;;;;;5057298;28;20048;-74
2022/08/07 10:03:00;;;;;;;10.43;4.10;;;20.40;69.50;;;;;;5055402;28;20056;-74
2022/08/07 10:06:05;;;;;;;11.60;3.80;;;20.40;67.90;;;;;;5073190;28;20060;-73
2022/08/07 10:09:00;;;;;;;10.10;4.45;;;20.50;66.70;;;;;;5054048;28;20040;-76
2022/08/07 10:11:33;;;;;;;8.02;3.78;;;20.60;67.80;;;;;;5040399;28;20492;-75
2022/08/07 10:14:33;;;;;;;13.75;4.22;;;20.70;68.90;;;;;;5052677;28;20045;-74
2022/08/07 10:17:39;;;;;;;8.30;3.97;;;20.70;67.40;;;;;;5057290;28;20040;-75
2022/08/07 10:20:56;;;;;;;9.63;4.05;;;20.80;67.70;;;;;;5039902;28;20041;-75
2022/08/07 10:23:29;;;;;;;8.90;4.05;;;21.00;66.60;;;;;;5057828;28;20041;-75
2022/08/07 10:26:41;;;;;;;7.90;3.53;;;21.10;66.90;;;;;;5077354;28;20036;-74
2022/08/07 10:29:22;;;;;;;9.30;3.58;;;20.60;65.30;;;;;;5076745;28;20045;-74
2022/08/07 10:32:02;;;;;;;5.95;3.30;;;21.40;63.70;;;;;;5077969;28;20055;-75
2022/08/07 10:34:52;;;;;;;7.50;4.03;;;21.50;63.30;;;;;;5076452;28;20044;-75
2022/08/07 10:37:47;;;;;;;8.07;3.50;;;21.60;63.70;;;;;;5077245;28;20127;-76
2022/08/07 10:40:48;;;;;;;6.32;3.53;;;21.70;63.10;;;;;;5060238;28;20044;-74
2022/08/07 10:44:07;;;;;;;9.13;4.47;;;21.80;63.50;;;;;;5075619;28;20356;-74
2022/08/07 10:46:46;;;;;;;9.65;3.80;;;21.90;62.60;;;;;;5018102;28;20048;-76
2022/08/07 10:49:49;;;;;;;8.45;4.13;;;22.00;63.30;;;;;;5058540;28;20049;-78
2022/08/07 10:52:32;;;;;;;8.82;4.18;;;22.00;62.30;;;;;;5077769;28;20053;-75
2022/08/07 10:55:33;;;;;;;8.05;3.78;;;22.00;62.80;;;;;;5076420;28;20053;-77
2022/08/07 10:58:33;;;;;;;9.25;4.30;;;22.00;62.90;;;;;;5077165;28;20044;-77
2022/08/07 11:01:44;;;;;;;11.52;4.20;;;22.20;63.30;;;;;;5075910;28;20044;-77
2022/08/07 11:04:35;;;;;;;7.95;3.35;;;22.20;63.40;;;;;;5059596;28;20467;-77
2022/08/07 11:07:29;;;;;;;9.00;3.25;;;22.30;62.90;;;;;;5027271;28;20060;-76
2022/08/07 11:10:33;;;;;;;7.85;3.50;;;22.40;62.00;;;;;;5059692;28;20048;-77
2022/08/07 11:13:17;;;;;;;7.72;3.72;;;22.60;62.90;;;;;;5076844;28;20067;-74
2022/08/07 11:16:10;;;;;;;10.10;4.10;;;22.60;62.30;;;;;;5075931;28;20052;-77
2022/08/07 11:18:56;;;;;;;11.40;4.00;;;22.60;62.00;;;;;;5059540;28;20036;-78
2022/08/07 11:21:54;;;;;;;9.27;3.97;;;22.70;61.50;;;;;;5075759;28;20056;-78
2022/08/07 11:24:52;;;;;;;9.73;4.20;;;22.80;60.90;;;;;;5076624;28;20040;-78
2022/08/07 11:27:33;;;;;;;10.93;4.07;;;22.80;60.70;;;;;;5076517;28;20037;-78
2022/08/07 11:30:30;;;;;;;12.52;3.90;;;22.90;60.20;;;;;;5062712;28;20395;-79
2022/08/07 11:33:24;;;;;;;9.10;4.00;;;22.90;61.40;;;;;;5042631;28;20048;-77
2022/08/07 11:36:38;;;;;;;11.55;4.40;;;22.90;60.60;;;;;;5057772;28;20049;-78
2022/08/07 11:39:05;;;;;;;12.88;4.28;;;23.10;60.00;;;;;;5075369;28;20052;-78
2022/08/07 11:41:51;;;;;;;;;;;23.10;60.80;;;;;;5058082;28;20048;-77
2022/08/07 11:45:05;;;;;;;10.85;3.78;;;23.10;60.00;;;;;;5059154;28;20274;-76
2022/08/07 11:47:55;;;;;;;8.25;3.47;;;23.30;59.40;;;;;;5058472;28;20048;-78
2022/08/07 11:51:01;;;;;;;7.85;3.45;;;23.30;58.70;;;;;;5076141;28;20104;-78
2022/08/07 11:53:55;;;;;;;12.07;3.95;;;23.30;60.00;;;;;;5006287;28;20391;-77
2022/08/07 11:56:41;;;;;;;9.13;3.70;;;23.30;59.00;;;;;;5057335;28;20045;-78
2022/08/07 11:59:37;;;;;;;12.48;3.92;;;23.40;59.60;;;;;;5075721;28;20373;-76
2022/08/07 12:02:48;;;;;;;11.80;4.07;;;23.50;58.50;;;;;;5074125;28;20455;-78
2022/08/07 12:05:53;;;;;;;8.80;3.65;;;23.50;58.80;;;;;;5055232;28;20486;-78
2022/08/07 12:08:32;;;;;;;7.72;3.55;;;23.50;58.10;;;;;;5058034;28;20056;-77
2022/08/07 12:11:18;;;;;;;9.05;3.72;;;23.50;58.80;;;;;;5075475;28;20044;-77
2022/08/07 12:13:56;;;;;;;6.80;3.60;;;23.60;58.30;;;;;;5058333;28;20059;-76
2022/08/07 12:16:34;;;;;;;7.20;3.13;;;23.70;58.80;;;;;;5056954;28;20048;-78
2022/08/07 12:19:18;;;;;;;8.80;3.83;;;23.80;58.10;;;;;;5075739;28;20051;-78
2022/08/07 12:21:57;;;;;;;10.70;3.80;;;23.90;57.60;;;;;;5040979;28;20467;-79
2022/08/07 12:28:42;;;;;;;8.13;3.40;;;24.10;56.70;;;;;;5074959;28;20044;-75
2022/08/07 12:31:50;;;;;;;6.60;3.30;;;24.10;56.90;;;;;;5047600;28;20056;-75
2022/08/07 12:34:32;;;;;;;8.73;2.88;;;24.10;57.00;;;;;;5012633;28;20067;-75
2022/08/07 12:37:01;;;;;;;10.00;3.15;;;24.20;57.50;;;;;;5057712;28;20063;-76
2022/08/07 12:39:46;;;;;;;10.25;3.53;;;24.50;57.70;;;;;;5059385;28;20048;-76
2022/08/07 12:42:24;;;;;;;9.30;3.65;;;24.40;56.80;;;;;;5073860;28;20044;-78
2022/08/07 12:45:04;;;;;;;11.55;4.80;;;24.40;57.10;;;;;;5058139;28;20447;-79
2022/08/07 12:48:12;;;;;;;7.43;3.40;;;24.40;56.20;;;;;;5075425;28;20040;-79
2022/08/07 12:51:12;;;;;;;12.93;3.75;;;24.30;56.50;;;;;;5021553;28;20064;-74
2022/08/07 12:54:03;;;;;;;12.63;3.22;;;24.50;55.60;;;;;;5057899;28;20056;-78
2022/08/07 12:56:54;;;;;;;13.77;3.15;;;24.60;56.40;;;;;;5074955;28;20371;-77
2022/08/07 12:59:29;;;;;;;7.80;3.70;;;24.80;56.00;;;;;;5057503;28;20056;-78
2022/08/07 13:02:36;;;;;;;8.98;3.15;;;24.80;55.80;;;;;;5074018;28;20055;-78
2022/08/07 13:05:25;;;;;;;12.23;3.28;;;24.90;55.50;;;;;;5057659;28;20371;-78
2022/08/07 13:08:32;;;;;;;9.10;2.92;;;25.10;55.30;;;;;;5061495;28;20051;-78
2022/08/07 13:11:34;;;;;;;9.13;2.90;;;25.20;55.40;;;;;;5057445;28;20048;-79
2022/08/07 13:14:51;;;;;;;12.73;4.00;;;25.20;54.50;;;;;;5073750;28;20045;-80
2022/08/07 13:17:38;;;;;;;5.35;2.92;;;25.40;54.30;;;;;;5041251;28;20482;-74
2022/08/07 13:20:19;;;;;;;10.82;3.55;;;26.10;54.30;;;;;;5041139;28;20048;-78
2022/08/07 13:23:05;;;;;;;7.63;3.30;;;25.50;54.30;;;;;;5073670;28;20051;-78
2022/08/07 13:26:18;;;;;;;6.05;3.28;;;25.60;54.00;;;;;;5060534;28;20455;-78
2022/08/07 13:29:14;;;;;;;9.52;2.83;;;25.60;53.50;;;;;;5073993;28;20048;-78
2022/08/07 13:32:01;;;;;;;8.23;3.10;;;25.70;54.40;;;;;;5040101;28;20047;-78
2022/08/07 13:35:12;;;;;;;11.30;2.97;;;25.70;53.90;;;;;;5053644;28;20055;-79
2022/08/07 13:38:29;;;;;;;;;;;;;;;;;;;;;
2022/08/07 13:41:37;;;;;;;6.60;2.85;;;25.90;55.80;;;;;;5053612;28;20044;-77
2022/08/07 13:44:11;;;;;;;6.25;3.00;;;25.90;52.80;;;;;;5054336;28;20052;-80
2022/08/07 13:46:48;;;;;;;8.93;2.67;;;26.10;54.00;;;;;;5054259;28;20376;-79
2022/08/07 13:49:18;;;;;;;6.35;2.40;;;26.50;54.30;;;;;;5053476;28;20056;-79
2022/08/07 13:56:22;;;;;;;5.28;2.50;;;28.40;52.70;;;;;;5049537;28;20045;-76
2022/08/07 13:59:24;;;;;;;5.30;2.40;;;29.20;51.60;;;;;;5076661;28;20049;-79
2022/08/07 14:01:55;;;;;;;7.40;2.25;;;29.90;49.80;;;;;;5060091;28;20044;-79
2022/08/07 14:04:43;;;;;;;4.85;2.35;;;30.70;50.40;;;;;;5078068;28;20053;-79
2022/08/07 14:07:29;;;;;;;9.00;4.55;;;31.60;49.00;;;;;;5044082;28;20052;-80
2022/08/07 14:10:04;;;;;;;9.48;3.22;;;32.40;47.70;;;;;;5077889;28;20071;-77
2022/08/07 14:13:01;;;;;;;7.80;2.40;;;33.10;48.30;;;;;;5077893;28;20045;-77
2022/08/07 14:15:43;;;;;;;5.97;2.70;;;33.60;45.80;;;;;;5059317;28;20049;-79
2022/08/07 14:18:30;;;;;;;7.10;2.72;;;34.20;45.00;;;;;;5060438;28;20040;-78
2022/08/07 14:21:13;;;;;;;6.00;2.78;;;34.90;44.40;;;;;;5076918;28;20044;-79
2022/08/07 14:24:07;;;;;;;10.05;2.80;;;35.50;43.20;;;;;;5077561;28;20047;-80
2022/08/07 14:26:56;;;;;;;6.85;3.17;;;35.80;44.40;;;;;;5044588;28;20131;-77
2022/08/07 14:29:39;;;;;;;7.32;3.17;;;36.40;43.10;;;;;;5059111;28;20044;-76
2022/08/07 14:32:30;;;;;;;4.75;2.63;;;36.50;42.60;;;;;;5060356;28;20052;-75